Terminal Aerodrome Forecast
Issued by NWS

Home | Current Version | Previous Version | Text Only | Print | Product List | Glossary On
Versions: 1 2 3 4 5 6 7 8 9 10 11 12 13
771
FTUS46 KPDT 291725
TAFBDN
TAF
KBDN 291725Z 2918/3018 32010KT P6SM FEW060
     FM292200 34015G25KT P6SM FEW070
     FM300400 33005KT P6SM FEW050 SCT200
     FM301200 VRB05KT P6SM SKC=

USA.gov is the U.S. government's official web portal to all federal, state and local government web resources and services.